sensor_id;sensor_type;location;lat;lon;timestamp;P1;durP1;ratioP1;P2;durP2;ratioP2
64637;SDS011;51049;45.046;38.950;2023-02-28T00:00:47;2.15;;;1.08;;
64637;SDS011;51049;45.046;38.950;2023-02-28T00:03:13;4.43;;;1.63;;
64637;SDS011;51049;45.046;38.950;2023-02-28T00:05:43;3.38;;;1.58;;
64637;SDS011;51049;45.046;38.950;2023-02-28T00:08:09;2.08;;;1.60;;
64637;SDS011;51049;45.046;38.950;2023-02-28T00:10:35;1.15;;;0.90;;
64637;SDS011;51049;45.046;38.950;2023-02-28T00:13:03;1.38;;;1.25;;
64637;SDS011;51049;45.046;38.950;2023-02-28T00:15:36;2.08;;;1.10;;
64637;SDS011;51049;45.046;38.950;2023-02-28T00:18:02;3.92;;;1.33;;
64637;SDS011;51049;45.046;38.950;2023-02-28T00:20:37;3.72;;;1.42;;
64637;SDS011;51049;45.046;38.950;2023-02-28T00:23:04;0.85;;;0.85;;
64637;SDS011;51049;45.046;38.950;2023-02-28T00:25:33;2.83;;;1.70;;
64637;SDS011;51049;45.046;38.950;2023-02-28T00:28:23;2.85;;;1.45;;
64637;SDS011;51049;45.046;38.950;2023-02-28T00:30:53;2.30;;;1.45;;
64637;SDS011;51049;45.046;38.950;2023-02-28T00:36:28;0.95;;;0.73;;
64637;SDS011;51049;45.046;38.950;2023-02-28T00:39:03;6.60;;;2.15;;
64637;SDS011;51049;45.046;38.950;2023-02-28T00:41:32;1.05;;;0.95;;
64637;SDS011;51049;45.046;38.950;2023-02-28T00:44:06;2.05;;;1.55;;
64637;SDS011;51049;45.046;38.950;2023-02-28T00:46:46;3.47;;;2.13;;
64637;SDS011;51049;45.046;38.950;2023-02-28T00:49:17;1.17;;;1.02;;
64637;SDS011;51049;45.046;38.950;2023-02-28T00:51:43;3.10;;;1.98;;
64637;SDS011;51049;45.046;38.950;2023-02-28T00:54:09;1.42;;;1.08;;
64637;SDS011;51049;45.046;38.950;2023-02-28T00:56:38;6.22;;;1.60;;
64637;SDS011;51049;45.046;38.950;2023-02-28T00:59:04;4.25;;;2.45;;
64637;SDS011;51049;45.046;38.950;2023-02-28T01:01:30;2.05;;;1.10;;
64637;SDS011;51049;45.046;38.950;2023-02-28T01:04:08;2.47;;;1.42;;
64637;SDS011;51049;45.046;38.950;2023-02-28T01:06:50;3.30;;;1.63;;
64637;SDS011;51049;45.046;38.950;2023-02-28T01:09:20;1.42;;;1.00;;
64637;SDS011;51049;45.046;38.950;2023-02-28T01:11:54;3.92;;;2.22;;
64637;SDS011;51049;45.046;38.950;2023-02-28T01:14:25;3.67;;;2.00;;
64637;SDS011;51049;45.046;38.950;2023-02-28T01:17:01;3.25;;;1.67;;
64637;SDS011;51049;45.046;38.950;2023-02-28T01:19:27;2.45;;;1.33;;
64637;SDS011;51049;45.046;38.950;2023-02-28T01:21:54;2.20;;;1.52;;
64637;SDS011;51049;45.046;38.950;2023-02-28T01:24:20;1.15;;;0.95;;
64637;SDS011;51049;45.046;38.950;2023-02-28T01:26:46;3.40;;;1.42;;
64637;SDS011;51049;45.046;38.950;2023-02-28T01:29:12;1.67;;;1.08;;
64637;SDS011;51049;45.046;38.950;2023-02-28T01:31:38;1.02;;;1.00;;
64637;SDS011;51049;45.046;38.950;2023-02-28T01:34:07;4.35;;;1.83;;
64637;SDS011;51049;45.046;38.950;2023-02-28T01:36:41;9.40;;;2.15;;
64637;SDS011;51049;45.046;38.950;2023-02-28T01:39:10;2.38;;;1.55;;
64637;SDS011;51049;45.046;38.950;2023-02-28T01:41:38;2.30;;;1.25;;
64637;SDS011;51049;45.046;38.950;2023-02-28T01:44:54;5.35;;;1.73;;
64637;SDS011;51049;45.046;38.950;2023-02-28T01:47:21;2.55;;;1.98;;
64637;SDS011;51049;45.046;38.950;2023-02-28T01:50:11;1.15;;;0.68;;
64637;SDS011;51049;45.046;38.950;2023-02-28T01:53:04;1.90;;;1.50;;
64637;SDS011;51049;45.046;38.950;2023-02-28T01:55:45;1.80;;;1.15;;
64637;SDS011;51049;45.046;38.950;2023-02-28T01:58:25;7.82;;;1.33;;
64637;SDS011;51049;45.046;38.950;2023-02-28T02:00:54;6.82;;;2.65;;
64637;SDS011;51049;45.046;38.950;2023-02-28T02:03:22;0.70;;;0.70;;
64637;SDS011;51049;45.046;38.950;2023-02-28T02:06:03;0.77;;;0.68;;
64637;SDS011;51049;45.046;38.950;2023-02-28T02:08:36;3.67;;;1.47;;
64637;SDS011;51049;45.046;38.950;2023-02-28T02:11:09;6.22;;;2.00;;
64637;SDS011;51049;45.046;38.950;2023-02-28T02:25:19;2.97;;;1.48;;
64637;SDS011;51049;45.046;38.950;2023-02-28T02:29:21;1.48;;;1.20;;
64637;SDS011;51049;45.046;38.950;2023-02-28T02:37:52;1.10;;;0.98;;
64637;SDS011;51049;45.046;38.950;2023-02-28T02:41:26;0.85;;;0.57;;
64637;SDS011;51049;45.046;38.950;2023-02-28T02:47:05;8.13;;;1.35;;
64637;SDS011;51049;45.046;38.950;2023-02-28T02:49:52;0.70;;;0.52;;
64637;SDS011;51049;45.046;38.950;2023-02-28T02:52:34;1.92;;;0.90;;
64637;SDS011;51049;45.046;38.950;2023-02-28T02:55:06;3.17;;;1.75;;
64637;SDS011;51049;45.046;38.950;2023-02-28T02:57:48;4.20;;;1.83;;
64637;SDS011;51049;45.046;38.950;2023-02-28T03:00:23;3.22;;;1.25;;
64637;SDS011;51049;45.046;38.950;2023-02-28T03:02:55;2.30;;;1.23;;
64637;SDS011;51049;45.046;38.950;2023-02-28T03:05:35;4.75;;;2.08;;
64637;SDS011;51049;45.046;38.950;2023-02-28T03:08:10;2.08;;;1.20;;
64637;SDS011;51049;45.046;38.950;2023-02-28T03:10:44;1.45;;;1.25;;
64637;SDS011;51049;45.046;38.950;2023-02-28T03:28:35;1.55;;;1.27;;
64637;SDS011;51049;45.046;38.950;2023-02-28T03:31:19;2.67;;;1.25;;
64637;SDS011;51049;45.046;38.950;2023-02-28T03:36:59;3.20;;;1.20;;
64637;SDS011;51049;45.046;38.950;2023-02-28T03:39:59;1.75;;;1.33;;
64637;SDS011;51049;45.046;38.950;2023-02-28T03:42:41;3.47;;;1.58;;
64637;SDS011;51049;45.046;38.950;2023-02-28T03:45:22;2.70;;;1.20;;
64637;SDS011;51049;45.046;38.950;2023-02-28T03:47:57;8.20;;;1.38;;
64637;SDS011;51049;45.046;38.950;2023-02-28T03:51:03;1.08;;;0.60;;
64637;SDS011;51049;45.046;38.950;2023-02-28T03:53:52;1.17;;;1.08;;
64637;SDS011;51049;45.046;38.950;2023-02-28T03:57:04;1.83;;;1.70;;
64637;SDS011;51049;45.046;38.950;2023-02-28T04:00:10;2.33;;;1.60;;
64637;SDS011;51049;45.046;38.950;2023-02-28T04:02:42;2.30;;;1.10;;
64637;SDS011;51049;45.046;38.950;2023-02-28T04:05:20;2.03;;;1.23;;
64637;SDS011;51049;45.046;38.950;2023-02-28T04:08:06;2.95;;;1.75;;
64637;SDS011;51049;45.046;38.950;2023-02-28T04:10:36;3.70;;;1.55;;
64637;SDS011;51049;45.046;38.950;2023-02-28T04:13:08;1.95;;;0.98;;
64637;SDS011;51049;45.046;38.950;2023-02-28T04:15:45;1.80;;;1.00;;
64637;SDS011;51049;45.046;38.950;2023-02-28T04:18:15;1.92;;;1.23;;
64637;SDS011;51049;45.046;38.950;2023-02-28T04:21:00;2.60;;;1.73;;
64637;SDS011;51049;45.046;38.950;2023-02-28T04:23:34;3.42;;;1.30;;
64637;SDS011;51049;45.046;38.950;2023-02-28T04:26:03;1.13;;;0.80;;
64637;SDS011;51049;45.046;38.950;2023-02-28T04:28:38;1.50;;;0.93;;
64637;SDS011;51049;45.046;38.950;2023-02-28T04:31:08;5.50;;;1.65;;
64637;SDS011;51049;45.046;38.950;2023-02-28T04:33:48;2.92;;;1.58;;
64637;SDS011;51049;45.046;38.950;2023-02-28T04:36:20;1.90;;;1.05;;
64637;SDS011;51049;45.046;38.950;2023-02-28T04:39:28;3.45;;;1.13;;
64637;SDS011;51049;45.046;38.950;2023-02-28T04:42:00;1.05;;;0.98;;
64637;SDS011;51049;45.046;38.950;2023-02-28T04:44:45;5.53;;;1.30;;
64637;SDS011;51049;45.046;38.950;2023-02-28T04:48:02;1.85;;;1.35;;
64637;SDS011;51049;45.046;38.950;2023-02-28T04:50:36;1.20;;;1.05;;
64637;SDS011;51049;45.046;38.950;2023-02-28T04:53:14;1.63;;;1.30;;
64637;SDS011;51049;45.046;38.950;2023-02-28T04:55:52;7.85;;;1.73;;
64637;SDS011;51049;45.046;38.950;2023-02-28T04:58:34;1.58;;;1.23;;
64637;SDS011;51049;45.046;38.950;2023-02-28T05:01:01;5.30;;;1.98;;
64637;SDS011;51049;45.046;38.950;2023-02-28T05:03:52;5.50;;;2.33;;
64637;SDS011;51049;45.046;38.950;2023-02-28T05:06:23;4.50;;;1.30;;
64637;SDS011;51049;45.046;38.950;2023-02-28T05:09:04;2.55;;;1.40;;
64637;SDS011;51049;45.046;38.950;2023-02-28T05:14:14;0.85;;;0.77;;
64637;SDS011;51049;45.046;38.950;2023-02-28T05:16:55;1.95;;;1.40;;
64637;SDS011;51049;45.046;38.950;2023-02-28T05:19:52;2.40;;;1.33;;
64637;SDS011;51049;45.046;38.950;2023-02-28T05:22:18;8.70;;;1.88;;
64637;SDS011;51049;45.046;38.950;2023-02-28T05:27:52;4.55;;;1.83;;
64637;SDS011;51049;45.046;38.950;2023-02-28T05:30:24;2.90;;;1.38;;
64637;SDS011;51049;45.046;38.950;2023-02-28T05:32:52;3.22;;;1.38;;
64637;SDS011;51049;45.046;38.950;2023-02-28T05:35:58;14.32;;;1.30;;
64637;SDS011;51049;45.046;38.950;2023-02-28T05:38:30;3.53;;;1.83;;
64637;SDS011;51049;45.046;38.950;2023-02-28T05:40:59;7.75;;;2.75;;
64637;SDS011;51049;45.046;38.950;2023-02-28T05:43:25;3.05;;;1.40;;
64637;SDS011;51049;45.046;38.950;2023-02-28T05:45:54;4.05;;;1.20;;
64637;SDS011;51049;45.046;38.950;2023-02-28T05:48:20;2.25;;;1.35;;
64637;SDS011;51049;45.046;38.950;2023-02-28T05:50:51;4.57;;;1.02;;
64637;SDS011;51049;45.046;38.950;2023-02-28T05:57:43;3.58;;;2.17;;
64637;SDS011;51049;45.046;38.950;2023-02-28T06:00:21;3.15;;;1.08;;
64637;SDS011;51049;45.046;38.950;2023-02-28T06:02:50;3.25;;;1.08;;
64637;SDS011;51049;45.046;38.950;2023-02-28T06:05:17;4.30;;;0.93;;
64637;SDS011;51049;45.046;38.950;2023-02-28T06:07:46;4.88;;;1.70;;
64637;SDS011;51049;45.046;38.950;2023-02-28T06:10:22;3.25;;;1.13;;
64637;SDS011;51049;45.046;38.950;2023-02-28T06:12:48;5.97;;;2.83;;
64637;SDS011;51049;45.046;38.950;2023-02-28T06:15:17;9.05;;;2.17;;
64637;SDS011;51049;45.046;38.950;2023-02-28T06:21:25;8.30;;;2.78;;
64637;SDS011;51049;45.046;38.950;2023-02-28T06:27:53;4.18;;;2.10;;
64637;SDS011;51049;45.046;38.950;2023-02-28T06:30:27;8.18;;;2.35;;
64637;SDS011;51049;45.046;38.950;2023-02-28T06:33:53;8.10;;;2.20;;
64637;SDS011;51049;45.046;38.950;2023-02-28T06:36:27;3.83;;;1.70;;
64637;SDS011;51049;45.046;38.950;2023-02-28T06:39:36;2.03;;;1.25;;
64637;SDS011;51049;45.046;38.950;2023-02-28T06:42:05;8.10;;;2.33;;
64637;SDS011;51049;45.046;38.950;2023-02-28T06:44:36;6.43;;;1.88;;
64637;SDS011;51049;45.046;38.950;2023-02-28T06:47:12;4.50;;;3.00;;
64637;SDS011;51049;45.046;38.950;2023-02-28T06:49:46;2.72;;;1.55;;
64637;SDS011;51049;45.046;38.950;2023-02-28T06:52:33;5.07;;;1.48;;
64637;SDS011;51049;45.046;38.950;2023-02-28T06:56:16;3.80;;;1.67;;
64637;SDS011;51049;45.046;38.950;2023-02-28T07:02:27;1.67;;;1.33;;
64637;SDS011;51049;45.046;38.950;2023-02-28T07:08:59;2.10;;;1.48;;
64637;SDS011;51049;45.046;38.950;2023-02-28T07:15:53;12.88;;;2.65;;
64637;SDS011;51049;45.046;38.950;2023-02-28T07:18:52;1.88;;;1.15;;
64637;SDS011;51049;45.046;38.950;2023-02-28T07:29:00;7.60;;;2.42;;
64637;SDS011;51049;45.046;38.950;2023-02-28T07:31:30;12.85;;;1.55;;
64637;SDS011;51049;45.046;38.950;2023-02-28T07:34:05;2.95;;;1.52;;
64637;SDS011;51049;45.046;38.950;2023-02-28T07:38:01;6.82;;;2.80;;
64637;SDS011;51049;45.046;38.950;2023-02-28T07:40:34;3.45;;;2.08;;
64637;SDS011;51049;45.046;38.950;2023-02-28T07:43:06;1.52;;;1.02;;
64637;SDS011;51049;45.046;38.950;2023-02-28T07:45:40;1.15;;;0.88;;
64637;SDS011;51049;45.046;38.950;2023-02-28T07:48:13;2.92;;;1.48;;
64637;SDS011;51049;45.046;38.950;2023-02-28T07:53:40;7.60;;;2.13;;
64637;SDS011;51049;45.046;38.950;2023-02-28T07:59:13;2.00;;;1.50;;
64637;SDS011;51049;45.046;38.950;2023-02-28T08:06:26;4.47;;;2.10;;
64637;SDS011;51049;45.046;38.950;2023-02-28T08:09:53;7.65;;;1.88;;
64637;SDS011;51049;45.046;38.950;2023-02-28T08:16:43;2.45;;;1.92;;
64637;SDS011;51049;45.046;38.950;2023-02-28T08:19:09;3.50;;;1.88;;
64637;SDS011;51049;45.046;38.950;2023-02-28T08:21:35;2.22;;;1.08;;
64637;SDS011;51049;45.046;38.950;2023-02-28T08:24:01;4.18;;;2.00;;
64637;SDS011;51049;45.046;38.950;2023-02-28T08:26:27;1.85;;;1.30;;
64637;SDS011;51049;45.046;38.950;2023-02-28T08:28:53;2.95;;;1.65;;
64637;SDS011;51049;45.046;38.950;2023-02-28T08:31:25;1.73;;;1.23;;
64637;SDS011;51049;45.046;38.950;2023-02-28T08:33:55;7.78;;;1.10;;
64637;SDS011;51049;45.046;38.950;2023-02-28T08:36:28;1.65;;;1.30;;
64637;SDS011;51049;45.046;38.950;2023-02-28T08:39:03;3.17;;;2.05;;
64637;SDS011;51049;45.046;38.950;2023-02-28T08:41:45;4.38;;;2.28;;
64637;SDS011;51049;45.046;38.950;2023-02-28T08:44:11;13.05;;;3.85;;
64637;SDS011;51049;45.046;38.950;2023-02-28T08:50:34;6.35;;;2.55;;
64637;SDS011;51049;45.046;38.950;2023-02-28T08:55:45;3.38;;;1.52;;
64637;SDS011;51049;45.046;38.950;2023-02-28T08:58:17;4.18;;;1.90;;
64637;SDS011;51049;45.046;38.950;2023-02-28T09:00:43;3.28;;;2.33;;
64637;SDS011;51049;45.046;38.950;2023-02-28T09:03:15;4.25;;;1.92;;
64637;SDS011;51049;45.046;38.950;2023-02-28T09:05:51;2.15;;;1.95;;
64637;SDS011;51049;45.046;38.950;2023-02-28T09:11:31;7.22;;;2.53;;
64637;SDS011;51049;45.046;38.950;2023-02-28T09:13:58;4.85;;;3.28;;
64637;SDS011;51049;45.046;38.950;2023-02-28T09:19:20;2.78;;;1.98;;
64637;SDS011;51049;45.046;38.950;2023-02-28T09:21:53;2.90;;;2.15;;
64637;SDS011;51049;45.046;38.950;2023-02-28T09:24:19;4.00;;;2.42;;
64637;SDS011;51049;45.046;38.950;2023-02-28T09:26:45;4.47;;;2.40;;
64637;SDS011;51049;45.046;38.950;2023-02-28T09:29:33;3.45;;;2.35;;
64637;SDS011;51049;45.046;38.950;2023-02-28T09:36:06;3.78;;;1.92;;
64637;SDS011;51049;45.046;38.950;2023-02-28T09:39:35;4.05;;;2.45;;
64637;SDS011;51049;45.046;38.950;2023-02-28T09:43:17;6.13;;;2.35;;
64637;SDS011;51049;45.046;38.950;2023-02-28T09:49:15;7.57;;;3.38;;
64637;SDS011;51049;45.046;38.950;2023-02-28T09:51:46;3.78;;;2.03;;
64637;SDS011;51049;45.046;38.950;2023-02-28T09:54:24;8.70;;;3.20;;
64637;SDS011;51049;45.046;38.950;2023-02-28T10:00:17;2.73;;;1.50;;
64637;SDS011;51049;45.046;38.950;2023-02-28T10:06:50;3.92;;;2.05;;
64637;SDS011;51049;45.046;38.950;2023-02-28T10:14:44;5.53;;;2.20;;
64637;SDS011;51049;45.046;38.950;2023-02-28T10:17:35;6.22;;;2.63;;
64637;SDS011;51049;45.046;38.950;2023-02-28T10:20:28;4.23;;;2.93;;
64637;SDS011;51049;45.046;38.950;2023-02-28T10:25:59;12.70;;;3.83;;
64637;SDS011;51049;45.046;38.950;2023-02-28T10:28:33;5.85;;;3.22;;
64637;SDS011;51049;45.046;38.950;2023-02-28T10:31:05;8.25;;;4.05;;
64637;SDS011;51049;45.046;38.950;2023-02-28T10:33:40;17.88;;;4.47;;
64637;SDS011;51049;45.046;38.950;2023-02-28T10:36:17;5.97;;;2.00;;
64637;SDS011;51049;45.046;38.950;2023-02-28T10:38:53;10.80;;;3.47;;
64637;SDS011;51049;45.046;38.950;2023-02-28T10:41:30;6.63;;;3.15;;
64637;SDS011;51049;45.046;38.950;2023-02-28T10:47:19;7.78;;;2.20;;
64637;SDS011;51049;45.046;38.950;2023-02-28T10:50:02;8.18;;;3.33;;
64637;SDS011;51049;45.046;38.950;2023-02-28T10:52:38;6.05;;;2.95;;
64637;SDS011;51049;45.046;38.950;2023-02-28T10:55:34;5.85;;;2.83;;
64637;SDS011;51049;45.046;38.950;2023-02-28T11:10:24;10.23;;;2.88;;
64637;SDS011;51049;45.046;38.950;2023-02-28T11:13:24;4.30;;;2.60;;
64637;SDS011;51049;45.046;38.950;2023-02-28T11:16:23;12.75;;;3.97;;
64637;SDS011;51049;45.046;38.950;2023-02-28T11:19:00;7.40;;;4.18;;
64637;SDS011;51049;45.046;38.950;2023-02-28T11:21:40;9.48;;;3.78;;
64637;SDS011;51049;45.046;38.950;2023-02-28T11:24:44;5.72;;;2.40;;
64637;SDS011;51049;45.046;38.950;2023-02-28T11:35:40;3.55;;;2.25;;
64637;SDS011;51049;45.046;38.950;2023-02-28T11:39:11;6.47;;;3.75;;
64637;SDS011;51049;45.046;38.950;2023-02-28T11:47:35;9.55;;;4.28;;
64637;SDS011;51049;45.046;38.950;2023-02-28T11:56:25;8.80;;;5.05;;
64637;SDS011;51049;45.046;38.950;2023-02-28T12:02:05;9.30;;;5.75;;
64637;SDS011;51049;45.046;38.950;2023-02-28T12:16:47;12.55;;;4.47;;
64637;SDS011;51049;45.046;38.950;2023-02-28T12:23:58;10.07;;;3.28;;
64637;SDS011;51049;45.046;38.950;2023-02-28T12:26:43;5.82;;;2.40;;
64637;SDS011;51049;45.046;38.950;2023-02-28T12:29:21;6.20;;;2.80;;
64637;SDS011;51049;45.046;38.950;2023-02-28T12:31:51;3.45;;;2.47;;
64637;SDS011;51049;45.046;38.950;2023-02-28T12:34:22;7.55;;;2.45;;
64637;SDS011;51049;45.046;38.950;2023-02-28T12:37:04;11.70;;;3.47;;
64637;SDS011;51049;45.046;38.950;2023-02-28T12:39:54;6.43;;;3.17;;
64637;SDS011;51049;45.046;38.950;2023-02-28T12:42:29;4.63;;;2.78;;
64637;SDS011;51049;45.046;38.950;2023-02-28T12:48:05;11.20;;;3.42;;
64637;SDS011;51049;45.046;38.950;2023-02-28T12:50:45;5.75;;;2.17;;
64637;SDS011;51049;45.046;38.950;2023-02-28T12:53:49;10.07;;;4.47;;
64637;SDS011;51049;45.046;38.950;2023-02-28T12:56:54;9.80;;;3.75;;
64637;SDS011;51049;45.046;38.950;2023-02-28T12:59:56;10.05;;;2.83;;
64637;SDS011;51049;45.046;38.950;2023-02-28T13:02:44;5.90;;;2.72;;
64637;SDS011;51049;45.046;38.950;2023-02-28T13:09:28;10.18;;;2.45;;
64637;SDS011;51049;45.046;38.950;2023-02-28T13:11:37;14.30;;;2.75;;
64637;SDS011;51049;45.046;38.950;2023-02-28T13:14:05;5.07;;;2.55;;
64637;SDS011;51049;45.046;38.950;2023-02-28T13:28:06;3.83;;;3.00;;
64637;SDS011;51049;45.046;38.950;2023-02-28T13:38:48;6.78;;;2.97;;
64637;SDS011;51049;45.046;38.950;2023-02-28T13:41:45;15.90;;;4.13;;
64637;SDS011;51049;45.046;38.950;2023-02-28T13:44:20;7.22;;;3.78;;
64637;SDS011;51049;45.046;38.950;2023-02-28T13:47:52;4.72;;;3.53;;
64637;SDS011;51049;45.046;38.950;2023-02-28T13:50:40;8.50;;;2.95;;
64637;SDS011;51049;45.046;38.950;2023-02-28T14:06:30;9.07;;;3.45;;
64637;SDS011;51049;45.046;38.950;2023-02-28T14:09:02;6.85;;;3.42;;
64637;SDS011;51049;45.046;38.950;2023-02-28T14:11:48;4.40;;;2.83;;
64637;SDS011;51049;45.046;38.950;2023-02-28T14:17:03;12.15;;;6.10;;
64637;SDS011;51049;45.046;38.950;2023-02-28T14:19:35;9.68;;;3.67;;
64637;SDS011;51049;45.046;38.950;2023-02-28T14:39:07;2.88;;;2.35;;
64637;SDS011;51049;45.046;38.950;2023-02-28T14:41:48;6.27;;;3.03;;
64637;SDS011;51049;45.046;38.950;2023-02-28T14:44:39;5.63;;;3.05;;
64637;SDS011;51049;45.046;38.950;2023-02-28T14:47:21;7.95;;;3.60;;
64637;SDS011;51049;45.046;38.950;2023-02-28T14:53:15;6.40;;;2.55;;
64637;SDS011;51049;45.046;38.950;2023-02-28T14:55:48;7.90;;;3.63;;
64637;SDS011;51049;45.046;38.950;2023-02-28T14:58:33;8.32;;;5.57;;
64637;SDS011;51049;45.046;38.950;2023-02-28T15:01:13;5.88;;;2.72;;
64637;SDS011;51049;45.046;38.950;2023-02-28T15:03:46;10.50;;;5.07;;
64637;SDS011;51049;45.046;38.950;2023-02-28T15:06:16;11.23;;;3.38;;
64637;SDS011;51049;45.046;38.950;2023-02-28T15:08:45;10.63;;;3.90;;
64637;SDS011;51049;45.046;38.950;2023-02-28T15:11:18;4.65;;;2.33;;
64637;SDS011;51049;45.046;38.950;2023-02-28T15:16:43;4.30;;;2.67;;
64637;SDS011;51049;45.046;38.950;2023-02-28T15:19:19;4.22;;;2.95;;
64637;SDS011;51049;45.046;38.950;2023-02-28T15:21:58;11.00;;;3.95;;
64637;SDS011;51049;45.046;38.950;2023-02-28T15:24:39;7.75;;;3.47;;
64637;SDS011;51049;45.046;38.950;2023-02-28T15:27:12;5.05;;;2.38;;
64637;SDS011;51049;45.046;38.950;2023-02-28T15:29:48;6.28;;;2.90;;
64637;SDS011;51049;45.046;38.950;2023-02-28T15:32:27;5.68;;;2.40;;
64637;SDS011;51049;45.046;38.950;2023-02-28T15:38:18;2.80;;;2.10;;
64637;SDS011;51049;45.046;38.950;2023-02-28T15:40:58;9.75;;;3.63;;
64637;SDS011;51049;45.046;38.950;2023-02-28T15:43:49;6.65;;;3.53;;
64637;SDS011;51049;45.046;38.950;2023-02-28T15:46:42;6.35;;;3.33;;
64637;SDS011;51049;45.046;38.950;2023-02-28T15:49:21;5.28;;;2.45;;
64637;SDS011;51049;45.046;38.950;2023-02-28T15:51:58;3.70;;;2.60;;
64637;SDS011;51049;45.046;38.950;2023-02-28T15:54:42;5.97;;;3.08;;
64637;SDS011;51049;45.046;38.950;2023-02-28T15:57:25;6.28;;;2.70;;
64637;SDS011;51049;45.046;38.950;2023-02-28T16:00:24;6.70;;;2.95;;
64637;SDS011;51049;45.046;38.950;2023-02-28T16:06:42;10.65;;;3.08;;
64637;SDS011;51049;45.046;38.950;2023-02-28T16:09:20;6.00;;;3.47;;
64637;SDS011;51049;45.046;38.950;2023-02-28T16:11:47;1.58;;;1.27;;
64637;SDS011;51049;45.046;38.950;2023-02-28T16:14:19;5.57;;;3.53;;
64637;SDS011;51049;45.046;38.950;2023-02-28T16:16:58;3.20;;;2.17;;
64637;SDS011;51049;45.046;38.950;2023-02-28T16:19:33;10.02;;;1.45;;
64637;SDS011;51049;45.046;38.950;2023-02-28T16:22:00;5.30;;;1.67;;
64637;SDS011;51049;45.046;38.950;2023-02-28T16:24:26;1.88;;;1.75;;
64637;SDS011;51049;45.046;38.950;2023-02-28T16:26:53;4.10;;;2.17;;
64637;SDS011;51049;45.046;38.950;2023-02-28T16:29:33;4.43;;;2.25;;
64637;SDS011;51049;45.046;38.950;2023-02-28T16:36:05;0.88;;;0.85;;
64637;SDS011;51049;45.046;38.950;2023-02-28T16:38:50;3.88;;;3.15;;
64637;SDS011;51049;45.046;38.950;2023-02-28T16:41:30;6.15;;;3.72;;
64637;SDS011;51049;45.046;38.950;2023-02-28T16:43:59;8.68;;;4.05;;
64637;SDS011;51049;45.046;38.950;2023-02-28T16:46:30;7.50;;;3.58;;
64637;SDS011;51049;45.046;38.950;2023-02-28T16:49:01;7.18;;;3.47;;
64637;SDS011;51049;45.046;38.950;2023-02-28T16:51:31;7.05;;;3.97;;
64637;SDS011;51049;45.046;38.950;2023-02-28T16:54:05;14.88;;;5.53;;
64637;SDS011;51049;45.046;38.950;2023-02-28T16:56:35;5.10;;;2.15;;
64637;SDS011;51049;45.046;38.950;2023-02-28T16:59:08;4.78;;;3.97;;
64637;SDS011;51049;45.046;38.950;2023-02-28T17:01:36;6.95;;;3.03;;
64637;SDS011;51049;45.046;38.950;2023-02-28T17:04:11;4.40;;;2.53;;
64637;SDS011;51049;45.046;38.950;2023-02-28T17:06:39;6.07;;;2.90;;
64637;SDS011;51049;45.046;38.950;2023-02-28T17:09:27;7.82;;;1.42;;
64637;SDS011;51049;45.046;38.950;2023-02-28T17:12:18;8.65;;;2.42;;
64637;SDS011;51049;45.046;38.950;2023-02-28T17:14:45;1.27;;;1.05;;
64637;SDS011;51049;45.046;38.950;2023-02-28T17:17:21;2.28;;;1.42;;
64637;SDS011;51049;45.046;38.950;2023-02-28T17:19:52;1.23;;;1.13;;
64637;SDS011;51049;45.046;38.950;2023-02-28T17:22:18;1.80;;;1.35;;
64637;SDS011;51049;45.046;38.950;2023-02-28T17:24:44;1.00;;;1.00;;
64637;SDS011;51049;45.046;38.950;2023-02-28T17:27:14;2.17;;;1.58;;
64637;SDS011;51049;45.046;38.950;2023-02-28T17:29:47;5.82;;;2.35;;
64637;SDS011;51049;45.046;38.950;2023-02-28T17:32:24;1.38;;;1.33;;
64637;SDS011;51049;45.046;38.950;2023-02-28T17:34:58;5.57;;;1.52;;
64637;SDS011;51049;45.046;38.950;2023-02-28T17:37:29;5.78;;;2.00;;
64637;SDS011;51049;45.046;38.950;2023-02-28T17:39:55;7.32;;;1.25;;
64637;SDS011;51049;45.046;38.950;2023-02-28T17:42:21;1.17;;;1.13;;
64637;SDS011;51049;45.046;38.950;2023-02-28T17:44:47;4.60;;;1.58;;
64637;SDS011;51049;45.046;38.950;2023-02-28T17:47:14;1.50;;;1.00;;
64637;SDS011;51049;45.046;38.950;2023-02-28T17:49:40;0.40;;;0.40;;
64637;SDS011;51049;45.046;38.950;2023-02-28T17:52:07;9.80;;;3.03;;
64637;SDS011;51049;45.046;38.950;2023-02-28T17:54:33;6.43;;;2.28;;
64637;SDS011;51049;45.046;38.950;2023-02-28T17:57:00;4.63;;;2.28;;
64637;SDS011;51049;45.046;38.950;2023-02-28T17:59:29;3.03;;;1.60;;
64637;SDS011;51049;45.046;38.950;2023-02-28T18:02:19;2.67;;;0.90;;
64637;SDS011;51049;45.046;38.950;2023-02-28T18:04:57;2.88;;;1.50;;
64637;SDS011;51049;45.046;38.950;2023-02-28T18:09:55;1.65;;;1.00;;
64637;SDS011;51049;45.046;38.950;2023-02-28T18:12:27;10.63;;;1.52;;
64637;SDS011;51049;45.046;38.950;2023-02-28T18:14:55;5.53;;;1.88;;
64637;SDS011;51049;45.046;38.950;2023-02-28T18:17:36;4.38;;;3.03;;
64637;SDS011;51049;45.046;38.950;2023-02-28T18:20:16;7.97;;;2.58;;
64637;SDS011;51049;45.046;38.950;2023-02-28T18:22:45;5.47;;;2.40;;
64637;SDS011;51049;45.046;38.950;2023-02-28T18:32:34;1.60;;;1.10;;
64637;SDS011;51049;45.046;38.950;2023-02-28T18:35:00;2.03;;;1.35;;
64637;SDS011;51049;45.046;38.950;2023-02-28T18:37:29;4.70;;;2.13;;
64637;SDS011;51049;45.046;38.950;2023-02-28T18:40:01;13.13;;;2.17;;
64637;SDS011;51049;45.046;38.950;2023-02-28T18:42:27;4.38;;;2.15;;
64637;SDS011;51049;45.046;38.950;2023-02-28T18:45:01;5.88;;;3.10;;
64637;SDS011;51049;45.046;38.950;2023-02-28T18:47:33;3.13;;;2.15;;
64637;SDS011;51049;45.046;38.950;2023-02-28T18:57:48;0.70;;;0.70;;
64637;SDS011;51049;45.046;38.950;2023-02-28T19:00:37;4.75;;;1.52;;
64637;SDS011;51049;45.046;38.950;2023-02-28T19:03:14;2.30;;;2.10;;
64637;SDS011;51049;45.046;38.950;2023-02-28T19:08:45;0.52;;;0.52;;
64637;SDS011;51049;45.046;38.950;2023-02-28T19:11:24;3.67;;;1.17;;
64637;SDS011;51049;45.046;38.950;2023-02-28T19:13:50;2.38;;;1.45;;
64637;SDS011;51049;45.046;38.950;2023-02-28T19:16:20;2.53;;;1.35;;
64637;SDS011;51049;45.046;38.950;2023-02-28T19:19:07;4.72;;;2.80;;
64637;SDS011;51049;45.046;38.950;2023-02-28T19:21:54;5.68;;;2.05;;
64637;SDS011;51049;45.046;38.950;2023-02-28T19:24:26;0.85;;;0.80;;
64637;SDS011;51049;45.046;38.950;2023-02-28T19:27:23;2.05;;;1.67;;
64637;SDS011;51049;45.046;38.950;2023-02-28T19:29:52;0.77;;;0.77;;
64637;SDS011;51049;45.046;38.950;2023-02-28T19:32:27;0.95;;;0.93;;
64637;SDS011;51049;45.046;38.950;2023-02-28T19:34:53;3.17;;;1.65;;
64637;SDS011;51049;45.046;38.950;2023-02-28T19:37:27;3.92;;;1.58;;
64637;SDS011;51049;45.046;38.950;2023-02-28T19:40:47;2.10;;;1.00;;
64637;SDS011;51049;45.046;38.950;2023-02-28T19:43:13;2.10;;;1.85;;
64637;SDS011;51049;45.046;38.950;2023-02-28T19:45:39;3.08;;;1.80;;
64637;SDS011;51049;45.046;38.950;2023-02-28T19:48:05;1.15;;;1.05;;
64637;SDS011;51049;45.046;38.950;2023-02-28T19:51:05;2.92;;;2.10;;
64637;SDS011;51049;45.046;38.950;2023-02-28T19:53:35;0.60;;;0.60;;
64637;SDS011;51049;45.046;38.950;2023-02-28T19:56:08;2.10;;;1.40;;
64637;SDS011;51049;45.046;38.950;2023-02-28T19:58:39;1.73;;;1.00;;
64637;SDS011;51049;45.046;38.950;2023-02-28T20:01:13;1.10;;;0.93;;
64637;SDS011;51049;45.046;38.950;2023-02-28T20:03:42;2.58;;;1.55;;
64637;SDS011;51049;45.046;38.950;2023-02-28T20:06:12;2.83;;;2.25;;
64637;SDS011;51049;45.046;38.950;2023-02-28T20:08:45;0.82;;;0.82;;
64637;SDS011;51049;45.046;38.950;2023-02-28T20:11:12;1.42;;;1.13;;
64637;SDS011;51049;45.046;38.950;2023-02-28T20:13:42;1.98;;;1.00;;
64637;SDS011;51049;45.046;38.950;2023-02-28T20:16:32;5.95;;;0.98;;